sensor_id;sensor_type;location;lat;lon;timestamp;pressure;altitude;pressure_sealevel;temperature;humidity
38197;BME280;26543;51.976;4.616;2023-03-04T00:01:46;53011.81;;;-140.72;67.44
38197;BME280;26543;51.976;4.616;2023-03-04T00:04:12;53036.16;;;-140.72;68.14
38197;BME280;26543;51.976;4.616;2023-03-04T00:06:37;53013.84;;;-140.72;70.11
38197;BME280;26543;51.976;4.616;2023-03-04T00:09:02;53028.06;;;-140.72;77.87
38197;BME280;26543;51.976;4.616;2023-03-04T00:11:28;53017.91;;;-140.72;84.74
38197;BME280;26543;51.976;4.616;2023-03-04T00:13:54;53040.22;;;-140.72;90.82
38197;BME280;26543;51.976;4.616;2023-03-04T00:16:20;53056.47;;;-140.72;89.75
38197;BME280;26543;51.976;4.616;2023-03-04T00:18:45;53011.81;;;-140.72;95.16
38197;BME280;26543;51.976;4.616;2023-03-04T00:21:10;53007.75;;;-140.72;100.00
38197;BME280;26543;51.976;4.616;2023-03-04T00:23:35;53013.84;;;-140.72;100.00
38197;BME280;26543;51.976;4.616;2023-03-04T00:26:00;53028.06;;;-140.72;100.00
38197;BME280;26543;51.976;4.616;2023-03-04T00:28:26;53024.00;;;-140.72;100.00
38197;BME280;26543;51.976;4.616;2023-03-04T00:30:51;53024.00;;;-140.72;100.00
38197;BME280;26543;51.976;4.616;2023-03-04T00:33:17;53024.00;;;-140.72;100.00
38197;BME280;26543;51.976;4.616;2023-03-04T00:35:42;53024.00;;;-140.72;100.00
38197;BME280;26543;51.976;4.616;2023-03-04T00:38:07;53040.22;;;-140.72;100.00
38197;BME280;26543;51.976;4.616;2023-03-04T00:40:32;52997.63;;;-140.72;100.00
38197;BME280;26543;51.976;4.616;2023-03-04T00:42:58;53050.38;;;-140.72;100.00
38197;BME280;26543;51.976;4.616;2023-03-04T00:45:23;52987.47;;;-140.72;100.00
38197;BME280;26543;51.976;4.616;2023-03-04T00:47:48;53038.19;;;-140.72;100.00
38197;BME280;26543;51.976;4.616;2023-03-04T00:50:14;53066.63;;;-140.72;100.00
38197;BME280;26543;51.976;4.616;2023-03-04T00:52:39;53003.69;;;-140.72;100.00
38197;BME280;26543;51.976;4.616;2023-03-04T00:55:04;53048.34;;;-140.72;100.00
38197;BME280;26543;51.976;4.616;2023-03-04T00:57:30;52989.50;;;-140.72;100.00
38197;BME280;26543;51.976;4.616;2023-03-04T00:59:57;53028.06;;;-140.72;100.00
38197;BME280;26543;51.976;4.616;2023-03-04T01:02:22;53005.72;;;-140.72;100.00
38197;BME280;26543;51.976;4.616;2023-03-04T01:04:47;53003.69;;;-140.72;100.00
38197;BME280;26543;51.976;4.616;2023-03-04T01:07:12;53060.53;;;-140.72;100.00
38197;BME280;26543;51.976;4.616;2023-03-04T01:09:38;53032.13;;;-140.72;100.00
38197;BME280;26543;51.976;4.616;2023-03-04T01:12:03;53036.16;;;-140.72;100.00
38197;BME280;26543;51.976;4.616;2023-03-04T01:14:28;52987.47;;;-140.72;100.00
38197;BME280;26543;51.976;4.616;2023-03-04T01:19:44;52979.34;;;-140.72;100.00
38197;BME280;26543;51.976;4.616;2023-03-04T01:22:20;53042.25;;;-140.72;100.00
38197;BME280;26543;51.976;4.616;2023-03-04T01:24:45;53024.00;;;-140.72;100.00
38197;BME280;26543;51.976;4.616;2023-03-04T01:27:15;53040.22;;;-140.72;100.00
38197;BME280;26543;51.976;4.616;2023-03-04T01:29:40;53007.75;;;-140.72;100.00
38197;BME280;26543;51.976;4.616;2023-03-04T01:32:05;53060.53;;;-140.72;100.00
38197;BME280;26543;51.976;4.616;2023-03-04T01:34:37;53026.03;;;-140.72;100.00
38197;BME280;26543;51.976;4.616;2023-03-04T01:37:20;53011.81;;;-140.72;100.00
38197;BME280;26543;51.976;4.616;2023-03-04T01:39:45;53005.72;;;-140.72;100.00
38197;BME280;26543;51.976;4.616;2023-03-04T01:42:22;53048.34;;;-140.72;100.00
38197;BME280;26543;51.976;4.616;2023-03-04T01:44:48;53026.03;;;-140.72;100.00
38197;BME280;26543;51.976;4.616;2023-03-04T01:47:15;53015.88;;;-140.72;100.00
38197;BME280;26543;51.976;4.616;2023-03-04T01:52:12;53005.72;;;-140.72;100.00
38197;BME280;26543;51.976;4.616;2023-03-04T01:54:38;53011.81;;;-140.72;100.00
38197;BME280;26543;51.976;4.616;2023-03-04T01:57:22;53007.75;;;-140.72;100.00
38197;BME280;26543;51.976;4.616;2023-03-04T02:00:10;53026.03;;;-140.72;100.00
38197;BME280;26543;51.976;4.616;2023-03-04T02:02:33;53040.22;;;-140.72;100.00
38197;BME280;26543;51.976;4.616;2023-03-04T02:04:58;53015.88;;;-140.72;100.00
38197;BME280;26543;51.976;4.616;2023-03-04T02:07:23;53038.19;;;-140.72;100.00
38197;BME280;26543;51.976;4.616;2023-03-04T02:09:48;53015.88;;;-140.72;100.00
38197;BME280;26543;51.976;4.616;2023-03-04T02:12:13;53026.03;;;-140.72;100.00
38197;BME280;26543;51.976;4.616;2023-03-04T02:14:39;53044.28;;;-140.72;95.84
38197;BME280;26543;51.976;4.616;2023-03-04T02:17:08;53015.88;;;-140.72;93.17
38197;BME280;26543;51.976;4.616;2023-03-04T02:22:18;53003.69;;;-140.72;82.81
38197;BME280;26543;51.976;4.616;2023-03-04T02:24:59;52999.66;;;-140.72;82.23
38197;BME280;26543;51.976;4.616;2023-03-04T02:27:26;53005.72;;;-140.72;77.59
38197;BME280;26543;51.976;4.616;2023-03-04T02:29:51;52973.25;;;-140.72;70.74
38197;BME280;26543;51.976;4.616;2023-03-04T02:32:16;53056.47;;;-140.72;63.60
38197;BME280;26543;51.976;4.616;2023-03-04T02:34:45;53015.88;;;-140.72;54.48
38197;BME280;26543;51.976;4.616;2023-03-04T02:37:11;53024.00;;;-140.72;48.48
38197;BME280;26543;51.976;4.616;2023-03-04T02:39:41;53024.00;;;-140.72;44.74
38197;BME280;26543;51.976;4.616;2023-03-04T02:42:07;52999.66;;;-140.72;33.92
38197;BME280;26543;51.976;4.616;2023-03-04T02:44:33;53030.09;;;-140.72;30.50
38197;BME280;26543;51.976;4.616;2023-03-04T02:46:59;53058.50;;;-140.72;28.83
38197;BME280;26543;51.976;4.616;2023-03-04T02:49:25;53042.25;;;-140.72;29.42
38197;BME280;26543;51.976;4.616;2023-03-04T02:51:51;53019.94;;;-140.72;30.18
38197;BME280;26543;51.976;4.616;2023-03-04T02:54:21;53021.97;;;-140.72;31.22
38197;BME280;26543;51.976;4.616;2023-03-04T02:56:47;52981.38;;;-140.72;32.64
38197;BME280;26543;51.976;4.616;2023-03-04T02:59:12;53013.84;;;-140.72;32.69
38197;BME280;26543;51.976;4.616;2023-03-04T03:01:37;53007.75;;;-140.72;35.67
38197;BME280;26543;51.976;4.616;2023-03-04T03:04:03;53017.91;;;-140.72;38.94
38197;BME280;26543;51.976;4.616;2023-03-04T03:06:28;53011.81;;;-140.72;41.80
38197;BME280;26543;51.976;4.616;2023-03-04T03:08:53;53046.31;;;-140.72;45.64
38197;BME280;26543;51.976;4.616;2023-03-04T03:11:18;52995.59;;;-140.72;42.53
38197;BME280;26543;51.976;4.616;2023-03-04T03:13:44;53013.84;;;-140.72;48.38
38197;BME280;26543;51.976;4.616;2023-03-04T03:16:09;53040.22;;;-140.72;47.20
38197;BME280;26543;51.976;4.616;2023-03-04T03:18:34;53026.03;;;-140.72;55.84
38197;BME280;26543;51.976;4.616;2023-03-04T03:20:59;52981.38;;;-140.72;61.54
38197;BME280;26543;51.976;4.616;2023-03-04T03:23:24;53024.00;;;-140.72;66.11
38197;BME280;26543;51.976;4.616;2023-03-04T03:25:50;52991.53;;;-140.72;72.10
38197;BME280;26543;51.976;4.616;2023-03-04T03:28:15;53028.06;;;-140.72;79.55
38197;BME280;26543;51.976;4.616;2023-03-04T03:30:40;53007.75;;;-140.72;83.00
38197;BME280;26543;51.976;4.616;2023-03-04T03:33:05;52995.59;;;-140.72;85.77
38197;BME280;26543;51.976;4.616;2023-03-04T03:35:31;52989.50;;;-140.72;87.95
38197;BME280;26543;51.976;4.616;2023-03-04T03:37:56;52999.66;;;-140.72;88.14
38197;BME280;26543;51.976;4.616;2023-03-04T03:40:21;52995.59;;;-140.72;87.37
38197;BME280;26543;51.976;4.616;2023-03-04T03:42:46;52997.63;;;-140.72;85.14
38197;BME280;26543;51.976;4.616;2023-03-04T03:45:12;53044.28;;;-140.72;79.65
38197;BME280;26543;51.976;4.616;2023-03-04T03:47:37;53011.81;;;-140.72;79.94
38197;BME280;26543;51.976;4.616;2023-03-04T03:50:02;53024.00;;;-140.72;80.25
38197;BME280;26543;51.976;4.616;2023-03-04T03:52:28;53024.00;;;-140.72;77.31
38197;BME280;26543;51.976;4.616;2023-03-04T03:54:53;53024.00;;;-140.72;74.76
38197;BME280;26543;51.976;4.616;2023-03-04T03:57:18;53044.28;;;-140.72;70.69
38197;BME280;26543;51.976;4.616;2023-03-04T03:59:43;53007.75;;;-140.72;63.87
38197;BME280;26543;51.976;4.616;2023-03-04T04:02:09;53007.75;;;-140.72;58.44
38197;BME280;26543;51.976;4.616;2023-03-04T04:04:34;52995.59;;;-140.72;59.24
38197;BME280;26543;51.976;4.616;2023-03-04T04:06:59;53013.84;;;-140.72;59.98
38197;BME280;26543;51.976;4.616;2023-03-04T04:09:24;53013.84;;;-140.72;61.46
38197;BME280;26543;51.976;4.616;2023-03-04T04:11:49;53048.34;;;-140.72;65.15
38197;BME280;26543;51.976;4.616;2023-03-04T04:14:15;53028.06;;;-140.72;69.21
38197;BME280;26543;51.976;4.616;2023-03-04T04:16:40;52987.47;;;-140.72;74.31
38197;BME280;26543;51.976;4.616;2023-03-04T04:19:05;53028.06;;;-140.72;75.88
38197;BME280;26543;51.976;4.616;2023-03-04T04:21:30;53028.06;;;-140.72;78.92
38197;BME280;26543;51.976;4.616;2023-03-04T04:23:56;53003.69;;;-140.72;80.23
38197;BME280;26543;51.976;4.616;2023-03-04T04:26:21;53030.09;;;-140.72;83.04
38197;BME280;26543;51.976;4.616;2023-03-04T04:28:46;53019.94;;;-140.72;83.14
38197;BME280;26543;51.976;4.616;2023-03-04T04:31:12;53021.97;;;-140.72;75.58
38197;BME280;26543;51.976;4.616;2023-03-04T04:33:37;53052.41;;;-140.72;78.16
38197;BME280;26543;51.976;4.616;2023-03-04T04:36:02;53048.34;;;-140.72;81.17
38197;BME280;26543;51.976;4.616;2023-03-04T04:38:29;53024.00;;;-140.72;80.27
38197;BME280;26543;51.976;4.616;2023-03-04T04:40:55;53003.69;;;-140.72;80.90
38197;BME280;26543;51.976;4.616;2023-03-04T04:43:20;53009.78;;;-140.72;83.15
38197;BME280;26543;51.976;4.616;2023-03-04T04:45:45;53003.69;;;-140.72;85.45
38197;BME280;26543;51.976;4.616;2023-03-04T04:48:11;53019.94;;;-140.72;86.30
38197;BME280;26543;51.976;4.616;2023-03-04T04:50:36;53040.22;;;-140.72;90.36
38197;BME280;26543;51.976;4.616;2023-03-04T04:53:01;53038.19;;;-140.72;87.19
38197;BME280;26543;51.976;4.616;2023-03-04T04:55:26;52993.56;;;-140.72;23.91
38197;BME280;26543;51.976;4.616;2023-03-04T04:57:52;53011.81;;;-140.72;14.03
38197;BME280;26543;51.976;4.616;2023-03-04T05:00:17;53005.72;;;-140.72;2.54
38197;BME280;26543;51.976;4.616;2023-03-04T05:02:43;53040.22;;;-140.72;0.00
38197;BME280;26543;51.976;4.616;2023-03-04T05:05:08;53009.78;;;-140.72;0.00
38197;BME280;26543;51.976;4.616;2023-03-04T05:07:33;53003.69;;;-140.72;0.00
38197;BME280;26543;51.976;4.616;2023-03-04T05:09:58;53013.84;;;-140.72;0.00
38197;BME280;26543;51.976;4.616;2023-03-04T05:12:24;53019.94;;;-140.72;0.00
38197;BME280;26543;51.976;4.616;2023-03-04T05:14:49;52997.63;;;-140.72;0.00
38197;BME280;26543;51.976;4.616;2023-03-04T05:17:15;53003.69;;;-140.72;0.00
38197;BME280;26543;51.976;4.616;2023-03-04T05:19:40;53019.94;;;-140.72;0.00
38197;BME280;26543;51.976;4.616;2023-03-04T05:22:05;53005.72;;;-140.72;0.00
38197;BME280;26543;51.976;4.616;2023-03-04T05:24:30;53054.44;;;-140.72;0.00
38197;BME280;26543;51.976;4.616;2023-03-04T05:26:56;53028.06;;;-140.72;0.00
38197;BME280;26543;51.976;4.616;2023-03-04T05:29:21;53003.69;;;-140.72;0.00
38197;BME280;26543;51.976;4.616;2023-03-04T05:31:46;52989.50;;;-140.72;0.00
38197;BME280;26543;51.976;4.616;2023-03-04T05:34:11;53032.13;;;-140.72;0.00
38197;BME280;26543;51.976;4.616;2023-03-04T05:36:37;53044.28;;;-140.72;0.00
38197;BME280;26543;51.976;4.616;2023-03-04T05:39:02;53007.75;;;-140.72;0.00
38197;BME280;26543;51.976;4.616;2023-03-04T05:41:28;53036.16;;;-140.72;0.00
38197;BME280;26543;51.976;4.616;2023-03-04T05:43:54;53015.88;;;-140.72;0.00
38197;BME280;26543;51.976;4.616;2023-03-04T05:46:20;53026.03;;;-140.72;0.00
38197;BME280;26543;51.976;4.616;2023-03-04T05:48:49;53026.03;;;-140.72;0.00
38197;BME280;26543;51.976;4.616;2023-03-04T05:51:15;53019.94;;;-140.72;0.00
38197;BME280;26543;51.976;4.616;2023-03-04T05:53:50;52991.53;;;-140.72;0.00
38197;BME280;26543;51.976;4.616;2023-03-04T05:56:17;53024.00;;;-140.72;0.00
38197;BME280;26543;51.976;4.616;2023-03-04T05:58:42;53019.94;;;-140.72;0.00
38197;BME280;26543;51.976;4.616;2023-03-04T06:01:08;53021.97;;;-140.72;0.00
38197;BME280;26543;51.976;4.616;2023-03-04T06:03:33;53058.50;;;-140.72;0.00
38197;BME280;26543;51.976;4.616;2023-03-04T06:05:59;53001.66;;;-140.72;0.00
38197;BME280;26543;51.976;4.616;2023-03-04T06:08:25;53028.06;;;-140.72;0.00
38197;BME280;26543;51.976;4.616;2023-03-04T06:10:51;52999.66;;;-140.72;0.00
38197;BME280;26543;51.976;4.616;2023-03-04T06:13:17;53007.75;;;-140.72;0.00
38197;BME280;26543;51.976;4.616;2023-03-04T06:15:42;53054.44;;;-140.72;0.00
38197;BME280;26543;51.976;4.616;2023-03-04T06:18:07;53040.22;;;-140.72;0.00
38197;BME280;26543;51.976;4.616;2023-03-04T06:20:33;53044.28;;;-140.72;0.00
38197;BME280;26543;51.976;4.616;2023-03-04T06:22:58;53072.69;;;-140.72;0.52
38197;BME280;26543;51.976;4.616;2023-03-04T06:25:24;53044.28;;;-140.72;2.31
38197;BME280;26543;51.976;4.616;2023-03-04T06:27:49;53015.88;;;-140.72;3.31
38197;BME280;26543;51.976;4.616;2023-03-04T06:30:15;53003.69;;;-140.72;4.44
38197;BME280;26543;51.976;4.616;2023-03-04T06:32:40;53013.84;;;-140.72;0.59
38197;BME280;26543;51.976;4.616;2023-03-04T06:35:08;53040.22;;;-140.72;0.00
38197;BME280;26543;51.976;4.616;2023-03-04T06:37:33;53011.81;;;-140.72;0.00
38197;BME280;26543;51.976;4.616;2023-03-04T06:39:58;53015.88;;;-140.72;0.00
38197;BME280;26543;51.976;4.616;2023-03-04T06:42:24;53007.75;;;-140.72;0.00
38197;BME280;26543;51.976;4.616;2023-03-04T06:44:49;53019.94;;;-140.72;0.00
38197;BME280;26543;51.976;4.616;2023-03-04T06:47:14;53034.16;;;-140.72;0.00
38197;BME280;26543;51.976;4.616;2023-03-04T06:49:40;52999.66;;;-140.72;0.00
38197;BME280;26543;51.976;4.616;2023-03-04T06:52:06;53040.22;;;-140.72;0.00
38197;BME280;26543;51.976;4.616;2023-03-04T06:54:31;53036.16;;;-140.72;0.00
38197;BME280;26543;51.976;4.616;2023-03-04T06:56:56;53066.63;;;-140.72;0.00
38197;BME280;26543;51.976;4.616;2023-03-04T06:59:22;53030.09;;;-140.72;0.00
38197;BME280;26543;51.976;4.616;2023-03-04T07:01:47;53030.09;;;-140.72;0.00
38197;BME280;26543;51.976;4.616;2023-03-04T07:04:12;53030.09;;;-140.72;0.00
38197;BME280;26543;51.976;4.616;2023-03-04T07:06:38;53019.94;;;-140.72;0.00
38197;BME280;26543;51.976;4.616;2023-03-04T07:09:03;53040.22;;;-140.72;0.00
38197;BME280;26543;51.976;4.616;2023-03-04T07:11:28;52987.47;;;-140.72;0.00
38197;BME280;26543;51.976;4.616;2023-03-04T07:13:54;53001.66;;;-140.72;0.00
38197;BME280;26543;51.976;4.616;2023-03-04T07:16:20;53034.16;;;-140.72;0.00
38197;BME280;26543;51.976;4.616;2023-03-04T07:18:45;52991.53;;;-140.72;0.00
38197;BME280;26543;51.976;4.616;2023-03-04T07:21:11;53017.91;;;-140.72;0.00
38197;BME280;26543;51.976;4.616;2023-03-04T07:23:37;53013.84;;;-140.72;0.00
38197;BME280;26543;51.976;4.616;2023-03-04T07:26:02;53050.38;;;-140.72;0.00
38197;BME280;26543;51.976;4.616;2023-03-04T07:28:28;53011.81;;;-140.72;0.00
38197;BME280;26543;51.976;4.616;2023-03-04T07:30:53;53003.69;;;-140.72;0.00
38197;BME280;26543;51.976;4.616;2023-03-04T07:33:18;53015.88;;;-140.72;0.00
38197;BME280;26543;51.976;4.616;2023-03-04T07:35:43;53028.06;;;-140.72;0.00
38197;BME280;26543;51.976;4.616;2023-03-04T07:38:08;52973.25;;;-140.72;0.00
38197;BME280;26543;51.976;4.616;2023-03-04T07:40:34;53003.69;;;-140.72;0.00
38197;BME280;26543;51.976;4.616;2023-03-04T07:42:59;53009.78;;;-140.72;0.54
38197;BME280;26543;51.976;4.616;2023-03-04T07:45:24;53038.19;;;-140.72;5.09
38197;BME280;26543;51.976;4.616;2023-03-04T07:47:50;53056.47;;;-140.72;8.16
38197;BME280;26543;51.976;4.616;2023-03-04T07:50:16;53015.88;;;-140.72;11.61
38197;BME280;26543;51.976;4.616;2023-03-04T07:52:42;52969.19;;;-140.72;15.77
38197;BME280;26543;51.976;4.616;2023-03-04T07:55:09;53026.03;;;-140.72;16.36
38197;BME280;26543;51.976;4.616;2023-03-04T07:57:34;52983.41;;;-140.72;17.61
38197;BME280;26543;51.976;4.616;2023-03-04T07:59:59;53007.75;;;-140.72;17.35
38197;BME280;26543;51.976;4.616;2023-03-04T08:02:25;53032.13;;;-140.72;16.02
38197;BME280;26543;51.976;4.616;2023-03-04T08:04:50;52979.34;;;-140.72;13.59
38197;BME280;26543;51.976;4.616;2023-03-04T08:07:15;53032.13;;;-140.72;10.21
38197;BME280;26543;51.976;4.616;2023-03-04T08:09:41;53021.97;;;-140.72;10.69
38197;BME280;26543;51.976;4.616;2023-03-04T08:12:06;52977.31;;;-140.72;8.74
38197;BME280;26543;51.976;4.616;2023-03-04T08:14:31;52977.31;;;-140.72;6.86
38197;BME280;26543;51.976;4.616;2023-03-04T08:16:57;52967.16;;;-140.72;0.47
38197;BME280;26543;51.976;4.616;2023-03-04T08:19:23;52959.06;;;-140.72;0.00
38197;BME280;26543;51.976;4.616;2023-03-04T08:21:48;52995.59;;;-140.72;0.00
38197;BME280;26543;51.976;4.616;2023-03-04T08:24:13;52979.34;;;-140.72;0.00
38197;BME280;26543;51.976;4.616;2023-03-04T08:26:40;52975.28;;;-140.72;0.00
38197;BME280;26543;51.976;4.616;2023-03-04T08:29:06;52991.53;;;-140.72;0.00
38197;BME280;26543;51.976;4.616;2023-03-04T08:31:31;52940.78;;;-140.72;0.00
38197;BME280;26543;51.976;4.616;2023-03-04T08:34:13;52957.03;;;-140.72;0.00
38197;BME280;26543;51.976;4.616;2023-03-04T08:36:54;52940.78;;;-140.72;0.00
38197;BME280;26543;51.976;4.616;2023-03-04T08:39:20;53011.81;;;-140.72;0.00
38197;BME280;26543;51.976;4.616;2023-03-04T08:41:45;52985.44;;;-140.72;0.00
38197;BME280;26543;51.976;4.616;2023-03-04T08:44:11;52940.78;;;-140.72;0.00
38197;BME280;26543;51.976;4.616;2023-03-04T08:46:37;52930.66;;;-140.72;0.00
38197;BME280;26543;51.976;4.616;2023-03-04T08:49:03;52967.16;;;-140.72;0.00
38197;BME280;26543;51.976;4.616;2023-03-04T08:51:28;52965.16;;;-140.72;0.00
38197;BME280;26543;51.976;4.616;2023-03-04T08:53:53;52926.59;;;-140.72;0.00
38197;BME280;26543;51.976;4.616;2023-03-04T08:56:19;52942.81;;;-140.72;0.00
38197;BME280;26543;51.976;4.616;2023-03-04T08:58:44;52922.53;;;-140.72;0.00
38197;BME280;26543;51.976;4.616;2023-03-04T09:01:10;52910.34;;;-140.72;0.00
38197;BME280;26543;51.976;4.616;2023-03-04T09:03:36;52936.72;;;-140.72;0.00
38197;BME280;26543;51.976;4.616;2023-03-04T09:06:02;52906.28;;;-140.72;0.00
38197;BME280;26543;51.976;4.616;2023-03-04T09:08:27;52952.97;;;-140.72;0.00
38197;BME280;26543;51.976;4.616;2023-03-04T09:10:53;52975.28;;;-140.72;0.00
38197;BME280;26543;51.976;4.616;2023-03-04T09:13:18;52965.16;;;-140.72;0.00
38197;BME280;26543;51.976;4.616;2023-03-04T09:15:44;52965.16;;;-140.72;0.00
38197;BME280;26543;51.976;4.616;2023-03-04T09:18:10;52926.59;;;-140.72;0.00
38197;BME280;26543;51.976;4.616;2023-03-04T09:20:35;53013.84;;;-140.72;0.00
38197;BME280;26543;51.976;4.616;2023-03-04T09:23:01;52946.88;;;-140.72;0.00
38197;BME280;26543;51.976;4.616;2023-03-04T09:25:26;52971.22;;;-140.72;0.00
38197;BME280;26543;51.976;4.616;2023-03-04T09:27:51;52938.75;;;-140.72;0.00
38197;BME280;26543;51.976;4.616;2023-03-04T09:30:16;52934.69;;;-140.72;0.00
38197;BME280;26543;51.976;4.616;2023-03-04T09:32:42;52973.25;;;-140.72;0.00
38197;BME280;26543;51.976;4.616;2023-03-04T09:35:07;52926.59;;;-140.72;0.00
38197;BME280;26543;51.976;4.616;2023-03-04T09:37:33;52920.50;;;-140.72;0.00
38197;BME280;26543;51.976;4.616;2023-03-04T09:39:59;52912.38;;;-140.72;0.00
38197;BME280;26543;51.976;4.616;2023-03-04T09:42:26;52896.16;;;-140.72;0.00
38197;BME280;26543;51.976;4.616;2023-03-04T09:44:52;52995.59;;;-140.72;0.00
38197;BME280;26543;51.976;4.616;2023-03-04T09:47:18;52932.66;;;-140.72;0.00
38197;BME280;26543;51.976;4.616;2023-03-04T09:49:47;52928.63;;;-140.72;0.00
38197;BME280;26543;51.976;4.616;2023-03-04T09:54:59;52944.84;;;-140.72;0.00
38197;BME280;26543;51.976;4.616;2023-03-04T10:05:11;52950.94;;;-140.72;0.00
38197;BME280;26543;51.976;4.616;2023-03-04T10:07:39;52910.34;;;-140.72;0.00
38197;BME280;26543;51.976;4.616;2023-03-04T10:10:06;52910.34;;;-140.72;7.98
38197;BME280;26543;51.976;4.616;2023-03-04T10:12:35;52942.81;;;-140.72;13.73
38197;BME280;26543;51.976;4.616;2023-03-04T10:15:02;52969.19;;;-140.72;12.61
38197;BME280;26543;51.976;4.616;2023-03-04T10:17:35;52938.75;;;-140.72;15.67
38197;BME280;26543;51.976;4.616;2023-03-04T10:20:15;52904.25;;;-140.72;12.68
38197;BME280;26543;51.976;4.616;2023-03-04T10:22:43;52936.72;;;-140.72;18.88
38197;BME280;26543;51.976;4.616;2023-03-04T10:27:40;52977.31;;;-140.72;36.08
38197;BME280;26543;51.976;4.616;2023-03-04T10:30:10;52920.50;;;-140.72;47.69
38197;BME280;26543;51.976;4.616;2023-03-04T10:32:44;52926.59;;;-140.72;53.70
38197;BME280;26543;51.976;4.616;2023-03-04T10:35:10;52950.94;;;-140.72;62.00
38197;BME280;26543;51.976;4.616;2023-03-04T10:37:46;52908.31;;;-140.72;58.96
38197;BME280;26543;51.976;4.616;2023-03-04T10:40:20;52932.66;;;-140.72;52.63
38197;BME280;26543;51.976;4.616;2023-03-04T10:42:47;52928.63;;;-140.72;31.03
38197;BME280;26543;51.976;4.616;2023-03-04T10:45:23;52886.00;;;-140.72;19.69
38197;BME280;26543;51.976;4.616;2023-03-04T10:47:52;52944.84;;;-140.72;0.00
38197;BME280;26543;51.976;4.616;2023-03-04T10:50:25;52888.03;;;-140.72;0.00
38197;BME280;26543;51.976;4.616;2023-03-04T10:52:50;52890.06;;;-140.72;0.00
38197;BME280;26543;51.976;4.616;2023-03-04T10:55:22;52926.59;;;-140.72;0.00
38197;BME280;26543;51.976;4.616;2023-03-04T10:57:50;52936.72;;;-140.72;0.00
38197;BME280;26543;51.976;4.616;2023-03-04T11:02:42;52896.16;;;-140.72;0.00
38197;BME280;26543;51.976;4.616;2023-03-04T11:07:40;52857.59;;;-140.72;0.00
38197;BME280;26543;51.976;4.616;2023-03-04T11:10:13;52902.22;;;-140.72;0.00
38197;BME280;26543;51.976;4.616;2023-03-04T11:12:39;52892.09;;;-140.72;0.00
38197;BME280;26543;51.976;4.616;2023-03-04T11:15:15;52906.28;;;-140.72;0.00
38197;BME280;26543;51.976;4.616;2023-03-04T11:17:51;52902.22;;;-140.72;0.00
38197;BME280;26543;51.976;4.616;2023-03-04T11:22:45;52938.75;;;-140.72;0.00
38197;BME280;26543;51.976;4.616;2023-03-04T11:25:19;52967.16;;;-140.72;0.00
38197;BME280;26543;51.976;4.616;2023-03-04T11:27:46;52881.94;;;-140.72;0.00
38197;BME280;26543;51.976;4.616;2023-03-04T11:30:28;52934.69;;;-140.72;0.00
38197;BME280;26543;51.976;4.616;2023-03-04T11:33:00;52906.28;;;-140.72;0.00
38197;BME280;26543;51.976;4.616;2023-03-04T11:38:22;52869.75;;;-140.72;0.00
38197;BME280;26543;51.976;4.616;2023-03-04T11:40:49;52847.44;;;-140.72;0.00
38197;BME280;26543;51.976;4.616;2023-03-04T11:48:57;52861.66;;;-140.72;0.00
38197;BME280;26543;51.976;4.616;2023-03-04T11:54:17;52808.88;;;-140.72;0.00
38197;BME280;26543;51.976;4.616;2023-03-04T11:56:46;52869.75;;;-140.72;0.00
38197;BME280;26543;51.976;4.616;2023-03-04T11:59:23;52910.34;;;-140.72;0.00
38197;BME280;26543;51.976;4.616;2023-03-04T12:02:04;52906.28;;;-140.72;0.00
38197;BME280;26543;51.976;4.616;2023-03-04T12:10:24;52898.16;;;-140.72;0.00
38197;BME280;26543;51.976;4.616;2023-03-04T12:15:42;52806.84;;;-140.72;0.00
38197;BME280;26543;51.976;4.616;2023-03-04T12:20:46;52699.31;;;-140.72;0.00
38197;BME280;26543;51.976;4.616;2023-03-04T12:26:02;52699.31;;;-140.72;0.00
38197;BME280;26543;51.976;4.616;2023-03-04T12:38:52;52731.75;;;-140.72;0.00
38197;BME280;26543;51.976;4.616;2023-03-04T12:43:59;52788.59;;;-140.72;0.00
38197;BME280;26543;51.976;4.616;2023-03-04T12:46:30;52810.91;;;-140.72;0.00
38197;BME280;26543;51.976;4.616;2023-03-04T12:56:53;52796.72;;;-140.72;0.00
38197;BME280;26543;51.976;4.616;2023-03-04T12:59:22;52835.25;;;-140.72;0.00
38197;BME280;26543;51.976;4.616;2023-03-04T13:09:50;52865.69;;;-140.72;0.00
38197;BME280;26543;51.976;4.616;2023-03-04T13:22:52;52896.16;;;-140.72;0.00
38197;BME280;26543;51.976;4.616;2023-03-04T13:38:19;52890.06;;;-140.72;0.00
38197;BME280;26543;51.976;4.616;2023-03-04T13:40:51;52709.44;;;-140.72;0.00
38197;BME280;26543;51.976;4.616;2023-03-04T13:51:20;52800.75;;;-140.72;0.00
38197;BME280;26543;51.976;4.616;2023-03-04T13:56:36;52792.66;;;-140.72;0.00
38197;BME280;26543;51.976;4.616;2023-03-04T14:01:34;52774.38;;;-140.72;0.00
38197;BME280;26543;51.976;4.616;2023-03-04T14:04:00;52754.09;;;-140.72;0.00
38197;BME280;26543;51.976;4.616;2023-03-04T14:06:27;52719.59;;;-140.72;0.00
38197;BME280;26543;51.976;4.616;2023-03-04T14:08:52;52595.81;;;-140.72;0.00
38197;BME280;26543;51.976;4.616;2023-03-04T14:13:43;52589.72;;;-140.72;0.00
38197;BME280;26543;51.976;4.616;2023-03-04T14:16:08;52593.78;;;-140.72;0.00
38197;BME280;26543;51.976;4.616;2023-03-04T14:18:33;52593.78;;;-140.72;0.00
38197;BME280;26543;51.976;4.616;2023-03-04T14:20:59;52484.19;;;-140.72;0.00
38197;BME280;26543;51.976;4.616;2023-03-04T14:23:29;52603.94;;;-140.72;0.00
38197;BME280;26543;51.976;4.616;2023-03-04T14:26:13;52640.44;;;-140.72;0.00
38197;BME280;26543;51.976;4.616;2023-03-04T14:28:46;52774.38;;;-140.72;0.00
38197;BME280;26543;51.976;4.616;2023-03-04T14:31:16;52770.31;;;-140.72;0.00
38197;BME280;26543;51.976;4.616;2023-03-04T14:33:43;52780.47;;;-140.72;0.00
38197;BME280;26543;51.976;4.616;2023-03-04T14:36:12;52837.28;;;-140.72;0.00
38197;BME280;26543;51.976;4.616;2023-03-04T14:38:39;52881.94;;;-140.72;0.00
38197;BME280;26543;51.976;4.616;2023-03-04T14:41:14;52837.28;;;-140.72;0.00
38197;BME280;26543;51.976;4.616;2023-03-04T14:43:44;52873.81;;;-140.72;0.00